Aviation Digital Data Service (ADDS)

Output produced by TAFs form (1041 UTC 23 January 2017)
found at http://www.aviationweather.gov/adds/tafs/
 
KGFL 230903Z 2309/2406 36004KT P6SM VCSH OVC040 
     FM231400 04012KT P6SM OVC030 
     FM232200 03012KT P6SM BKN020 OVC030 
     FM240300 01014G19KT 2SM -SN BR BKN015 OVC020 
     FM240500 02015G23KT 1SM -SN BR VV009